createdAt,value
2023-08-20T00:00:08.604Z,88.03
2023-08-20T00:02:42.187Z,88.03
2023-08-20T00:05:09.447Z,89.41
2023-08-20T00:07:37.038Z,89.45
2023-08-20T00:10:03.837Z,88.26
2023-08-20T00:12:30.995Z,88.61
2023-08-20T00:15:03.199Z,87.75
2023-08-20T00:17:30.501Z,88.06
2023-08-20T00:19:57.309Z,88.01
2023-08-20T00:22:25.251Z,88.33
2023-08-20T00:24:53.148Z,88.47
2023-08-20T00:27:19.919Z,88.02
2023-08-20T00:29:46.619Z,89.61
2023-08-20T00:32:13.245Z,89.41
2023-08-20T00:34:39.751Z,89.50
2023-08-20T00:37:06.269Z,88.50
2023-08-20T00:39:33.164Z,88.25
2023-08-20T00:41:59.666Z,88.77
2023-08-20T00:44:26.197Z,88.65
2023-08-20T00:46:52.746Z,88.90
2023-08-20T00:49:19.713Z,88.90
2023-08-20T00:51:46.626Z,88.18
2023-08-20T00:54:13.414Z,88.54
2023-08-20T00:56:39.960Z,88.46
2023-08-20T00:59:06.962Z,88.22
2023-08-20T01:01:33.500Z,88.35
2023-08-20T01:04:00.020Z,88.21
2023-08-20T01:06:37.522Z,87.88
2023-08-20T01:09:13.952Z,88.09
2023-08-20T01:11:45.208Z,88.54
2023-08-20T01:14:17.752Z,89.07
2023-08-20T01:16:46.068Z,88.47
2023-08-20T01:19:18.169Z,89.09
2023-08-20T01:22:23.690Z,89.17
2023-08-20T01:25:05.569Z,90.04
2023-08-20T01:27:44.569Z,89.47
2023-08-20T01:30:11.912Z,88.87
2023-08-20T01:32:39.690Z,88.69
2023-08-20T01:35:07.193Z,89.10
2023-08-20T01:37:33.929Z,89.15
2023-08-20T01:40:00.634Z,89.17
2023-08-20T01:42:27.185Z,88.81
2023-08-20T01:44:53.626Z,89.50
2023-08-20T01:47:20.141Z,89.18
2023-08-20T01:49:46.625Z,90.49
2023-08-20T01:52:13.137Z,91.22
2023-08-20T01:54:39.607Z,90.91
2023-08-20T01:57:06.138Z,91.66
2023-08-20T01:59:33.188Z,92.03
2023-08-20T02:01:59.765Z,89.63
2023-08-20T02:04:26.320Z,91.46
2023-08-20T02:06:53.045Z,92.63
2023-08-20T02:09:19.545Z,91.52
2023-08-20T02:11:46.239Z,91.16
2023-08-20T02:14:12.735Z,91.83
2023-08-20T02:16:39.235Z,92.56
2023-08-20T02:19:05.725Z,92.96
2023-08-20T02:21:32.790Z,92.59
2023-08-20T02:24:02.250Z,93.46
2023-08-20T02:26:28.792Z,92.87
2023-08-20T02:28:55.284Z,93.49
2023-08-20T02:31:21.797Z,93.76
2023-08-20T02:33:50.448Z,93.55
2023-08-20T02:36:17.022Z,93.45
2023-08-20T02:38:43.490Z,93.80
2023-08-20T02:41:09.937Z,92.15
2023-08-20T02:43:36.435Z,92.01
2023-08-20T02:46:02.973Z,93.07
2023-08-20T02:48:30.397Z,93.44
2023-08-20T02:50:57.459Z,93.23
2023-08-20T02:53:24.016Z,93.20
2023-08-20T02:55:50.486Z,92.06
2023-08-20T02:58:17.001Z,92.36
2023-08-20T03:00:43.523Z,91.87
2023-08-20T03:03:10.054Z,92.50
2023-08-20T03:05:39.160Z,92.20
2023-08-20T03:08:05.908Z,92.46
2023-08-20T03:10:33.009Z,92.43
2023-08-20T03:13:00.554Z,92.32
2023-08-20T03:15:27.034Z,92.38
2023-08-20T03:17:53.727Z,92.29
2023-08-20T03:20:20.241Z,91.29
2023-08-20T03:22:46.803Z,91.63
2023-08-20T03:25:13.360Z,91.09
2023-08-20T03:27:39.971Z,92.03
2023-08-20T03:30:07.286Z,91.25
2023-08-20T03:32:33.929Z,91.28
2023-08-20T03:35:00.751Z,92.01
2023-08-20T03:37:27.669Z,91.80
2023-08-20T03:39:54.186Z,91.60
2023-08-20T03:42:20.890Z,91.20
2023-08-20T03:44:49.205Z,91.58
2023-08-20T03:47:16.886Z,92.08
2023-08-20T03:49:43.392Z,92.26
2023-08-20T03:52:09.894Z,91.96
2023-08-20T03:54:37.008Z,92.36
2023-08-20T03:57:04.110Z,91.28
2023-08-20T03:59:31.381Z,90.66
2023-08-20T04:01:58.391Z,90.44
2023-08-20T04:04:25.790Z,91.95
2023-08-20T04:06:52.423Z,91.63
2023-08-20T04:09:18.932Z,91.72
2023-08-20T04:11:45.743Z,92.18
2023-08-20T04:14:12.229Z,92.36
2023-08-20T04:16:38.773Z,92.13
2023-08-20T04:19:05.597Z,92.18
2023-08-20T04:21:32.648Z,92.76
2023-08-20T04:23:59.831Z,92.36
2023-08-20T04:26:26.567Z,92.53
2023-08-20T04:28:53.068Z,92.99
2023-08-20T04:31:19.923Z,93.01
2023-08-20T04:33:53.208Z,93.21
2023-08-20T04:36:23.846Z,93.83
2023-08-20T04:38:50.323Z,94.08
2023-08-20T04:41:16.902Z,93.59
2023-08-20T04:43:44.187Z,93.46
2023-08-20T04:46:11.258Z,93.89
2023-08-20T04:48:37.817Z,94.06
2023-08-20T04:51:04.389Z,94.00
2023-08-20T04:53:31.142Z,94.80
2023-08-20T04:55:59.111Z,94.14
2023-08-20T04:58:25.666Z,94.04
2023-08-20T05:00:52.295Z,93.78
2023-08-20T05:03:19.618Z,93.43
2023-08-20T05:05:50.303Z,93.78
2023-08-20T05:08:17.533Z,93.66
2023-08-20T05:10:44.143Z,93.64
2023-08-20T05:13:12.225Z,93.65
2023-08-20T05:15:38.724Z,93.48
2023-08-20T05:18:05.433Z,93.17
2023-08-20T05:20:32.429Z,93.53
2023-08-20T05:22:59.258Z,93.07
2023-08-20T05:25:26.200Z,93.16
2023-08-20T05:27:52.683Z,93.42
2023-08-20T05:30:19.199Z,93.28
2023-08-20T05:32:45.665Z,93.26
2023-08-20T05:35:14.302Z,92.72
2023-08-20T05:37:42.320Z,92.41
2023-08-20T05:40:09.561Z,92.39
2023-08-20T05:42:36.681Z,92.58
2023-08-20T05:45:06.677Z,92.29
2023-08-20T05:47:33.846Z,92.81
2023-08-20T05:50:01.077Z,92.55
2023-08-20T05:52:27.901Z,92.43
2023-08-20T05:54:54.344Z,92.40
2023-08-20T05:57:22.096Z,92.23
2023-08-20T05:59:48.965Z,92.41
2023-08-20T06:02:19.433Z,92.13
2023-08-20T06:04:46.002Z,91.87
2023-08-20T06:07:12.816Z,91.95
2023-08-20T06:09:40.028Z,91.39
2023-08-20T06:12:07.250Z,91.67
2023-08-20T06:14:33.707Z,90.93
2023-08-20T06:17:00.241Z,90.73
2023-08-20T06:19:27.112Z,90.86
2023-08-20T06:21:53.582Z,89.89
2023-08-20T06:24:20.092Z,90.67
2023-08-20T06:26:47.048Z,90.19
2023-08-20T06:29:13.575Z,87.80
2023-08-20T06:31:40.626Z,90.08
2023-08-20T06:34:07.320Z,88.35
2023-08-20T06:36:33.787Z,85.63
2023-08-20T06:39:00.236Z,86.15
2023-08-20T06:41:26.726Z,88.80
2023-08-20T06:43:53.247Z,88.24
2023-08-20T06:46:20.089Z,88.55
2023-08-20T06:48:46.631Z,87.10
2023-08-20T06:51:16.570Z,87.33
2023-08-20T06:53:43.470Z,87.66
2023-08-20T06:56:10.522Z,85.61
2023-08-20T06:58:37.280Z,86.38
2023-08-20T07:01:03.827Z,84.70
2023-08-20T07:03:30.348Z,83.82
2023-08-20T07:05:56.801Z,85.62
2023-08-20T07:08:23.310Z,85.00
2023-08-20T07:10:49.802Z,85.11
2023-08-20T07:13:16.280Z,85.09
2023-08-20T07:15:43.549Z,82.15
2023-08-20T07:18:10.251Z,82.15
2023-08-20T07:20:36.796Z,82.95
2023-08-20T07:23:05.199Z,84.64
2023-08-20T07:25:32.149Z,84.99
2023-08-20T07:27:58.605Z,83.40
2023-08-20T07:30:25.077Z,83.98
2023-08-20T07:32:51.722Z,80.06
2023-08-20T07:35:18.339Z,80.14
2023-08-20T07:37:44.850Z,79.29
2023-08-20T07:40:16.615Z,80.76
2023-08-20T07:42:43.700Z,82.16
2023-08-20T07:45:10.900Z,78.72
2023-08-20T07:47:38.475Z,80.46
2023-08-20T07:50:06.385Z,79.64
2023-08-20T07:52:33.877Z,79.31
2023-08-20T07:55:00.589Z,79.65
2023-08-20T07:57:27.090Z,79.30
2023-08-20T07:59:53.806Z,77.43
2023-08-20T08:02:20.260Z,76.93
2023-08-20T08:04:46.753Z,77.17
2023-08-20T08:07:13.253Z,76.44
2023-08-20T08:09:39.887Z,79.38
2023-08-20T08:12:06.471Z,78.52
2023-08-20T08:14:32.918Z,78.08
2023-08-20T08:16:59.638Z,77.92
2023-08-20T08:19:26.272Z,76.81
2023-08-20T08:21:52.798Z,78.97
2023-08-20T08:24:19.415Z,77.57
2023-08-20T08:26:46.063Z,75.61
2023-08-20T08:29:12.545Z,75.46
2023-08-20T08:31:39.127Z,76.13
2023-08-20T08:34:06.025Z,76.98
2023-08-20T08:36:32.622Z,75.97
2023-08-20T08:38:59.142Z,77.37
2023-08-20T08:41:27.298Z,70.60
2023-08-20T08:43:56.326Z,73.57
2023-08-20T08:46:24.593Z,72.58
2023-08-20T08:48:52.422Z,71.32
2023-08-20T08:51:19.500Z,73.67
2023-08-20T08:53:47.574Z,67.57
2023-08-20T08:56:14.168Z,68.88
2023-08-20T08:58:40.655Z,69.65
2023-08-20T09:01:07.470Z,67.09
2023-08-20T09:03:34.225Z,72.39
2023-08-20T09:06:03.032Z,67.37
2023-08-20T09:08:31.685Z,70.81
2023-08-20T09:10:59.788Z,66.87
2023-08-20T09:13:33.474Z,68.32
2023-08-20T09:16:00.269Z,69.63
2023-08-20T09:18:26.758Z,67.95
2023-08-20T09:20:53.297Z,67.36
2023-08-20T09:23:19.787Z,68.90
2023-08-20T09:25:46.338Z,68.70
2023-08-20T09:28:13.051Z,64.37
2023-08-20T09:30:39.800Z,67.37
2023-08-20T09:33:13.146Z,66.26
2023-08-20T09:35:39.725Z,63.99
2023-08-20T09:38:06.389Z,70.65
2023-08-20T09:40:32.969Z,69.40
2023-08-20T09:43:02.184Z,60.60
2023-08-20T09:45:29.940Z,63.94
2023-08-20T09:47:58.759Z,64.86
2023-08-20T09:50:27.053Z,66.38
2023-08-20T09:53:07.441Z,66.34
2023-08-20T09:55:36.685Z,64.97
2023-08-20T09:58:03.866Z,62.64
2023-08-20T10:00:31.555Z,66.60
2023-08-20T10:02:58.711Z,67.87
2023-08-20T10:05:26.251Z,65.29
2023-08-20T10:07:57.577Z,63.88
2023-08-20T10:10:24.366Z,64.66
2023-08-20T10:12:51.414Z,66.02
2023-08-20T10:15:18.166Z,66.72
2023-08-20T10:17:46.211Z,65.24
2023-08-20T10:20:15.697Z,63.91
2023-08-20T10:22:44.725Z,63.36
2023-08-20T10:25:31.763Z,64.09
2023-08-20T10:28:19.531Z,63.74
2023-08-20T10:31:06.477Z,62.08
2023-08-20T10:33:38.781Z,63.87
2023-08-20T10:36:10.947Z,65.22
2023-08-20T10:38:38.750Z,64.34
2023-08-20T10:41:09.601Z,63.80
2023-08-20T10:43:39.159Z,61.52
2023-08-20T10:46:20.062Z,59.57
2023-08-20T10:48:58.035Z,60.56
2023-08-20T10:51:30.089Z,63.01
2023-08-20T10:54:02.801Z,61.66
2023-08-20T10:56:43.217Z,61.48
2023-08-20T10:59:14.485Z,61.37
2023-08-20T11:01:44.818Z,62.13
2023-08-20T11:04:11.479Z,63.54
2023-08-20T11:06:39.563Z,63.65
2023-08-20T11:09:06.464Z,61.15
2023-08-20T11:11:33.513Z,57.16
2023-08-20T11:14:07.835Z,58.35
2023-08-20T11:16:36.052Z,58.99
2023-08-20T11:19:02.833Z,58.53
2023-08-20T11:21:29.565Z,61.12
2023-08-20T11:23:56.179Z,61.14
2023-08-20T11:26:22.647Z,64.52
2023-08-20T11:28:49.104Z,61.53
2023-08-20T11:31:15.935Z,58.37
2023-08-20T11:33:42.467Z,62.48
2023-08-20T11:36:09.037Z,61.88
2023-08-20T11:38:35.544Z,58.25
2023-08-20T11:41:02.734Z,59.03
2023-08-20T11:43:29.779Z,57.81
2023-08-20T11:45:56.952Z,61.28
2023-08-20T11:48:23.827Z,57.39
2023-08-20T11:50:53.452Z,62.61
2023-08-20T11:53:23.170Z,58.12
2023-08-20T11:55:49.891Z,57.64
2023-08-20T11:58:16.492Z,57.80
2023-08-20T12:00:43.348Z,61.59
2023-08-20T12:03:10.595Z,58.16
2023-08-20T12:05:37.188Z,61.16
2023-08-20T12:08:05.345Z,55.58
2023-08-20T12:10:33.546Z,53.28
2023-08-20T12:13:00.074Z,55.49
2023-08-20T12:15:26.856Z,56.10
2023-08-20T12:18:04.313Z,55.63
2023-08-20T12:20:32.441Z,50.59
2023-08-20T12:23:04.612Z,56.54
2023-08-20T12:25:33.310Z,55.56
2023-08-20T12:28:01.545Z,52.05
2023-08-20T12:30:28.127Z,57.17
2023-08-20T12:32:54.916Z,54.25
2023-08-20T12:35:21.529Z,52.76
2023-08-20T12:37:48.035Z,53.36
2023-08-20T12:40:15.260Z,52.30
2023-08-20T12:42:43.785Z,49.05
2023-08-20T12:45:11.314Z,55.12
2023-08-20T12:47:38.099Z,49.91
2023-08-20T12:50:05.470Z,51.43
2023-08-20T12:52:34.253Z,53.09
2023-08-20T12:55:00.997Z,53.82
2023-08-20T12:57:27.543Z,51.12
2023-08-20T12:59:54.023Z,53.21
2023-08-20T13:02:20.542Z,50.12
2023-08-20T13:04:47.394Z,49.10
2023-08-20T13:07:14.262Z,47.54
2023-08-20T13:09:41.316Z,47.86
2023-08-20T13:12:11.156Z,52.30
2023-08-20T13:14:37.904Z,51.78
2023-08-20T13:17:04.668Z,48.54
2023-08-20T13:19:31.118Z,46.91
2023-08-20T13:21:57.608Z,48.18
2023-08-20T13:24:24.087Z,46.07
2023-08-20T13:26:52.221Z,50.78
2023-08-20T13:29:18.701Z,50.18
2023-08-20T13:31:45.202Z,49.09
2023-08-20T13:34:11.679Z,49.23
2023-08-20T13:36:39.578Z,48.26
2023-08-20T13:39:06.129Z,48.00
2023-08-20T13:41:32.829Z,44.70
2023-08-20T13:44:02.435Z,48.43
2023-08-20T13:46:28.952Z,50.87
2023-08-20T13:48:57.659Z,52.80
2023-08-20T13:51:24.150Z,50.13
2023-08-20T13:53:50.613Z,51.49
2023-08-20T13:56:17.106Z,48.80
2023-08-20T13:58:43.578Z,45.36
2023-08-20T14:01:10.486Z,42.46
2023-08-20T14:03:37.141Z,48.30
2023-08-20T14:06:03.673Z,41.53
2023-08-20T14:08:30.126Z,41.34
2023-08-20T14:10:56.683Z,47.31
2023-08-20T14:13:23.173Z,46.85
2023-08-20T14:15:49.784Z,47.22
2023-08-20T14:18:16.909Z,43.11
2023-08-20T14:20:43.941Z,43.00
2023-08-20T14:23:10.510Z,42.36
2023-08-20T14:25:37.697Z,42.40
2023-08-20T14:28:04.362Z,42.63
2023-08-20T14:30:30.860Z,45.28
2023-08-20T14:32:57.332Z,41.83
2023-08-20T14:35:24.095Z,40.29
2023-08-20T14:37:53.829Z,39.84
2023-08-20T14:40:20.773Z,41.15
2023-08-20T14:42:47.245Z,41.84
2023-08-20T14:45:13.800Z,38.57
2023-08-20T14:47:40.404Z,41.30
2023-08-20T14:50:07.838Z,40.99
2023-08-20T14:52:35.640Z,41.32
2023-08-20T14:55:02.332Z,42.62
2023-08-20T14:57:40.940Z,42.12
2023-08-20T15:00:13.138Z,43.00
2023-08-20T15:02:39.910Z,42.99
2023-08-20T15:05:06.627Z,45.25
2023-08-20T15:07:33.351Z,41.99
2023-08-20T15:09:59.873Z,41.98
2023-08-20T15:12:26.358Z,37.44
2023-08-20T15:14:52.849Z,38.26
2023-08-20T15:17:19.387Z,40.76
2023-08-20T15:19:45.839Z,42.29
2023-08-20T15:22:14.849Z,39.76
2023-08-20T15:24:41.314Z,41.72
2023-08-20T15:27:07.793Z,42.45
2023-08-20T15:29:34.228Z,39.98
2023-08-20T15:32:01.109Z,39.16
2023-08-20T15:34:28.029Z,39.15
2023-08-20T15:36:54.584Z,39.96
2023-08-20T15:39:21.272Z,38.09
2023-08-20T15:41:47.743Z,40.60
2023-08-20T15:44:14.648Z,39.22
2023-08-20T15:46:41.137Z,39.81
2023-08-20T15:49:07.723Z,40.22
2023-08-20T15:51:34.807Z,42.35
2023-08-20T15:54:01.578Z,43.90
2023-08-20T15:56:28.086Z,43.03
2023-08-20T15:58:54.551Z,41.55
2023-08-20T16:01:21.217Z,42.04
2023-08-20T16:03:47.782Z,41.62
2023-08-20T16:06:14.541Z,40.23
2023-08-20T16:08:41.005Z,40.12
2023-08-20T16:11:07.528Z,42.16
2023-08-20T16:13:34.006Z,42.01
2023-08-20T16:16:01.414Z,39.08
2023-08-20T16:18:27.911Z,40.66
2023-08-20T16:20:54.612Z,40.74
2023-08-20T16:23:21.080Z,42.10
2023-08-20T16:25:47.558Z,43.52
2023-08-20T16:28:14.038Z,47.80
2023-08-20T16:30:40.843Z,50.09
2023-08-20T16:33:08.478Z,48.85
2023-08-20T16:35:35.249Z,47.76
2023-08-20T16:38:01.864Z,45.94
2023-08-20T16:40:28.461Z,51.25
2023-08-20T16:42:55.008Z,56.06
2023-08-20T16:45:21.868Z,54.19
2023-08-20T16:47:48.779Z,59.69
2023-08-20T16:50:15.547Z,59.80
2023-08-20T16:52:42.037Z,57.79
2023-08-20T16:55:08.931Z,60.83
2023-08-20T16:57:35.756Z,62.55
2023-08-20T17:00:02.585Z,64.44
2023-08-20T17:02:29.473Z,64.59
2023-08-20T17:04:56.066Z,64.52
2023-08-20T17:07:22.556Z,64.24
2023-08-20T17:09:49.108Z,65.95
2023-08-20T17:12:16.004Z,63.49
2023-08-20T17:14:42.598Z,64.27
2023-08-20T17:17:09.765Z,64.08
2023-08-20T17:19:36.268Z,63.91
2023-08-20T17:22:02.773Z,65.82
2023-08-20T17:24:29.241Z,64.49
2023-08-20T17:26:55.713Z,63.90
2023-08-20T17:29:22.166Z,65.17
2023-08-20T17:31:48.630Z,64.71
2023-08-20T17:34:15.143Z,66.30
2023-08-20T17:36:41.641Z,67.05
2023-08-20T17:39:08.183Z,67.20
2023-08-20T17:41:34.783Z,68.41
2023-08-20T17:44:01.246Z,66.97
2023-08-20T17:46:42.671Z,68.36
2023-08-20T17:49:09.201Z,68.73
2023-08-20T17:51:37.232Z,69.50
2023-08-20T17:54:04.043Z,68.92
2023-08-20T17:56:30.830Z,67.05
2023-08-20T17:58:57.399Z,68.40
2023-08-20T18:01:23.977Z,67.66
2023-08-20T18:03:50.831Z,68.04
2023-08-20T18:06:17.594Z,67.28
2023-08-20T18:08:46.808Z,66.58
2023-08-20T18:11:13.391Z,67.80
2023-08-20T18:13:40.972Z,67.14
2023-08-20T18:16:07.574Z,68.03
2023-08-20T18:18:34.816Z,68.48
2023-08-20T18:21:01.294Z,69.01
2023-08-20T18:23:27.791Z,66.65
2023-08-20T18:25:54.637Z,67.69
2023-08-20T18:28:21.168Z,67.50
2023-08-20T18:30:51.532Z,67.98
2023-08-20T18:33:19.114Z,68.83
2023-08-20T18:35:45.638Z,68.58
2023-08-20T18:38:17.626Z,69.54
2023-08-20T18:40:44.105Z,68.89
2023-08-20T18:43:10.674Z,69.45
2023-08-20T18:45:37.204Z,67.60
2023-08-20T18:48:03.970Z,68.57
2023-08-20T18:50:30.491Z,69.03
2023-08-20T18:52:57.232Z,69.04
2023-08-20T18:55:23.712Z,68.76
2023-08-20T18:57:50.190Z,68.01
2023-08-20T19:00:16.937Z,68.40
2023-08-20T19:02:43.564Z,68.11
2023-08-20T19:05:11.498Z,68.73
2023-08-20T19:07:37.964Z,68.39
2023-08-20T19:10:04.877Z,68.26
2023-08-20T19:12:31.337Z,69.14
2023-08-20T19:14:57.809Z,69.22
2023-08-20T19:17:24.330Z,70.36
2023-08-20T19:19:50.834Z,69.52
2023-08-20T19:22:17.319Z,69.18
2023-08-20T19:24:43.838Z,69.62
2023-08-20T19:27:10.292Z,70.23
2023-08-20T19:29:36.767Z,70.25
2023-08-20T19:32:03.298Z,71.00
2023-08-20T19:34:31.844Z,71.33
2023-08-20T19:36:58.798Z,69.24
2023-08-20T19:39:25.489Z,68.80
2023-08-20T19:41:52.088Z,68.74
2023-08-20T19:44:18.665Z,67.89
2023-08-20T19:46:45.723Z,68.24
2023-08-20T19:49:12.233Z,68.37
2023-08-20T19:51:39.210Z,67.97
2023-08-20T19:54:06.419Z,68.68
2023-08-20T19:56:32.980Z,69.11
2023-08-20T19:58:59.455Z,68.40
2023-08-20T20:01:27.040Z,68.84
2023-08-20T20:03:53.912Z,68.94
2023-08-20T20:06:23.810Z,69.96
2023-08-20T20:08:50.317Z,69.58
2023-08-20T20:11:17.815Z,68.42
2023-08-20T20:13:44.332Z,68.95
2023-08-20T20:16:10.914Z,68.59
2023-08-20T20:18:37.578Z,68.77
2023-08-20T20:21:04.074Z,68.61
2023-08-20T20:23:30.546Z,68.77
2023-08-20T20:25:57.161Z,68.85
2023-08-20T20:28:23.607Z,68.91
2023-08-20T20:30:50.108Z,69.48
2023-08-20T20:33:16.589Z,70.40
2023-08-20T20:35:43.084Z,70.30
2023-08-20T20:38:09.532Z,70.97
2023-08-20T20:40:36.125Z,71.08
2023-08-20T20:43:02.601Z,71.63
2023-08-20T20:45:29.427Z,71.01
2023-08-20T20:47:55.960Z,71.25
2023-08-20T20:50:22.501Z,72.25
2023-08-20T20:52:48.997Z,72.06
2023-08-20T20:55:15.633Z,72.03
2023-08-20T20:57:42.189Z,71.70
2023-08-20T21:00:09.411Z,72.03
2023-08-20T21:02:36.283Z,71.96
2023-08-20T21:05:03.094Z,72.49
2023-08-20T21:07:29.807Z,72.07
2023-08-20T21:12:23.107Z,72.36
2023-08-20T21:14:49.658Z,72.01
2023-08-20T21:17:16.130Z,71.92
2023-08-20T21:19:42.567Z,72.10
2023-08-20T21:22:13.264Z,71.99
2023-08-20T21:24:40.270Z,72.51
2023-08-20T21:27:07.578Z,72.69
2023-08-20T21:29:38.530Z,72.95
2023-08-20T21:32:05.399Z,72.58
2023-08-20T21:34:32.148Z,72.73
2023-08-20T21:37:00.086Z,72.63
2023-08-20T21:39:26.600Z,73.22
2023-08-20T21:41:53.384Z,73.78
2023-08-20T21:44:20.024Z,74.05
2023-08-20T21:46:46.742Z,73.85
2023-08-20T21:49:13.262Z,73.99
2023-08-20T21:51:40.157Z,74.58
2023-08-20T21:54:06.629Z,74.60
2023-08-20T21:56:35.474Z,74.49
2023-08-20T21:59:04.975Z,75.01
2023-08-20T22:01:31.531Z,74.88
2023-08-20T22:03:58.082Z,75.80
2023-08-20T22:06:24.609Z,75.96
2023-08-20T22:08:51.370Z,76.46
2023-08-20T22:11:17.864Z,76.53
2023-08-20T22:13:44.437Z,76.95
2023-08-20T22:16:10.983Z,76.58
2023-08-20T22:18:37.507Z,76.61
2023-08-20T22:21:04.134Z,76.30
2023-08-20T22:23:31.409Z,76.77
2023-08-20T22:25:57.939Z,76.85
2023-08-20T22:28:24.423Z,77.44
2023-08-20T22:30:50.893Z,77.49
2023-08-20T22:33:17.412Z,77.18
2023-08-20T22:35:50.087Z,77.36
2023-08-20T22:38:16.568Z,77.53
2023-08-20T22:40:43.713Z,77.03
2023-08-20T22:43:10.414Z,77.48
2023-08-20T22:45:37.072Z,78.38
2023-08-20T22:48:03.847Z,78.28
2023-08-20T22:50:30.830Z,77.96
2023-08-20T22:52:57.917Z,77.80
2023-08-20T22:55:25.327Z,78.29
2023-08-20T22:57:52.065Z,78.53
2023-08-20T23:00:18.805Z,78.39
2023-08-20T23:02:48.704Z,78.88
2023-08-20T23:05:15.292Z,78.10
2023-08-20T23:07:41.871Z,78.51
2023-08-20T23:10:08.715Z,78.47
2023-08-20T23:12:35.387Z,78.66
2023-08-20T23:15:02.077Z,79.05
2023-08-20T23:17:28.745Z,79.13
2023-08-20T23:19:55.388Z,78.55
2023-08-20T23:22:21.908Z,79.45
2023-08-20T23:24:48.731Z,79.18
2023-08-20T23:27:15.344Z,79.67
2023-08-20T23:29:41.782Z,79.50
2023-08-20T23:32:08.254Z,79.56
2023-08-20T23:34:34.699Z,79.62
2023-08-20T23:37:01.195Z,79.52
2023-08-20T23:39:27.636Z,79.53
2023-08-20T23:41:54.140Z,79.38
2023-08-20T23:44:20.748Z,79.32
2023-08-20T23:46:48.629Z,78.98
2023-08-20T23:49:15.872Z,79.19
2023-08-20T23:51:42.358Z,79.76
2023-08-20T23:54:08.843Z,79.79
2023-08-20T23:56:35.707Z,79.56
2023-08-20T23:59:02.233Z,79.01
